Time;durP1;ratioP1;P1;durP2;ratioP2;P2;SDS_P1;SDS_P2;PMS_P1;PMS_P2;Temp;Humidity;BMP_temperature;BMP_pressure;BME280_temperature;BME280_humidity;BME280_pressure;Samples;Min_cycle;Max_cycle;Signal;HPM_P1;HPM_P2
2021/11/17 02:25:55;;;;;;;;;;;;;;;5.06;92.92;100745.94;1621268;87;20209;-81
2021/11/17 02:28:39;;;;;;;;;;;;;;;5.10;92.64;100746.11;1622011;86;20505;-80
2021/11/17 02:31:24;;;;;;;;;;;;;;;4.92;92.85;100753.44;1634361;85;20096;-80
2021/11/17 02:33:53;;;;;;;;;;;;;;;4.86;93.18;100748.13;1633508;86;20200;-80
2021/11/17 02:36:34;;;;;;;;;;;;;;;4.77;93.73;100750.06;1645007;86;20177;-81
2021/11/17 02:39:16;;;;;;;;;;;;;;;4.85;93.66;100754.33;1640189;86;21221;-81
2021/11/17 02:41:52;;;;;;;;;;;;;;;4.85;93.39;100755.64;1641084;86;20172;-81
2021/11/17 02:44:27;;;;;;;;;;;;;;;4.81;93.52;100755.47;1640640;86;20108;-81
2021/11/17 02:47:08;;;;;;;;;;;;;;;4.79;93.04;100752.95;1594823;86;20160;-81
2021/11/17 02:50:07;;;;;;;;;;;;;;;4.76;92.99;100751.03;1632694;86;20644;-81
2021/11/17 02:52:42;;;;;;;;;;;;;;;4.72;93.05;100748.24;1641146;86;21199;-80
2021/11/17 02:55:28;;;;;;;;;;;;;;;4.67;93.14;100748.06;1637775;86;20153;-80
2021/11/17 02:58:14;;;;;;;;;;;;;;;4.63;93.23;100744.45;1640662;85;20469;-80
2021/11/17 03:00:46;;;;;;;;;;;;;;;4.71;93.45;100740.02;1647295;85;20181;-81
2021/11/17 03:03:18;;;;;;;;;;;;;;;4.58;93.88;100740.84;1633826;86;20141;-82
2021/11/17 03:06:07;;;;;;;;;;;;;;;4.68;93.84;100738.47;1633458;86;21288;-82
2021/11/17 03:08:49;;;;;;;;;;;;;;;4.61;93.48;100738.02;1633795;86;20176;-82
2021/11/17 03:11:24;;;;;;;;;;;;;;;4.54;93.71;100742.45;1633444;86;20461;-80
2021/11/17 03:14:06;;;;;;;;;;;;;;;4.62;93.85;100739.70;1639405;86;20869;-80
2021/11/17 03:16:59;;;;;;;;;;;;;;;4.61;93.50;100735.41;1638190;86;20145;-81
2021/11/17 03:19:31;;;;;;;;;;;;;;;4.59;93.42;100736.47;1637927;86;21033;-81
2021/11/17 03:22:18;;;;;;;;;;;;;;;4.57;93.40;100739.19;1642166;86;20242;-82
2021/11/17 03:25:05;;;;;;;;;;;;;;;4.67;93.23;100737.61;1636492;86;20166;-81
2021/11/17 03:27:37;;;;;;;;;;;;;;;4.66;92.71;100729.41;1648342;86;20251;-81
2021/11/17 03:30:30;;;;;;;;;;;;;;;4.74;92.56;100733.27;1644969;85;20203;-80
2021/11/17 03:33:17;;;;;;;;;;;;;;;4.70;92.34;100733.13;1650058;86;22138;-80
2021/11/17 03:35:58;;;;;;;;;;;;;;;4.73;92.20;100736.36;1647100;85;20130;-80
2021/11/17 03:38:49;;;;;;;;;;;;;;;4.74;92.11;100730.20;1644870;86;20210;-80
2021/11/17 03:41:24;;;;;;;;;;;;;;;4.76;92.08;100732.71;1642199;85;20226;-80
2021/11/17 03:44:07;;;;;;;;;;;;;;;4.70;91.57;100731.82;1648140;85;20190;-80
2021/11/17 03:46:42;;;;;;;;;;;;;;;4.70;91.65;100731.82;1643135;86;21920;-80
2021/11/17 03:49:18;;;;;;;;;;;;;;;4.68;91.21;100735.36;1645815;86;21020;-81
2021/11/17 03:51:59;;;;;;;;;;;;;;;4.75;91.01;100740.19;1650010;85;20123;-80
2021/11/17 03:54:43;;;;;;;;;;;;;;;4.73;90.53;100738.16;1642693;86;20146;-79
2021/11/17 03:57:31;;;;;;;;;;;;;;;4.73;90.63;100738.16;1651800;86;20577;-80
2021/11/17 04:00:06;;;;;;;;;;;;;;;4.64;90.42;100744.35;1651832;86;21171;-80
2021/11/17 04:02:38;;;;;;;;;;;;;;;4.54;90.23;100749.85;1652453;85;20165;-80
2021/11/17 04:05:34;;;;;;;;;;;;;;;4.58;90.57;100743.45;1651144;85;20202;-79
2021/11/17 04:08:27;;;;;;;;;;;;;;;4.55;90.44;100743.66;1641913;85;20348;-80
2021/11/17 04:11:00;;;;;;;;;;;;;;;4.38;90.82;100745.26;1648843;86;20213;-81
2021/11/17 04:13:44;;;;;;;;;;;;;;;4.39;91.17;100743.02;1643048;85;21392;-79
2021/11/17 04:16:19;;;;;;;;;;;;;;;4.18;91.62;100740.89;1647485;85;20179;-80
2021/11/17 04:18:48;;;;;;;;;;;;;;;3.99;92.27;100743.84;1649944;86;20161;-80
2021/11/17 04:21:21;;;;;;;;;;;;;;;3.91;92.27;100745.63;1626356;87;20251;-80
2021/11/17 04:23:51;;;;;;;;;;;;;;;3.77;93.11;100735.23;1632084;86;20168;-81
2021/11/17 04:26:32;;;;;;;;;;;;;;;3.85;93.27;100736.05;1600398;87;21058;-81
2021/11/17 04:29:04;;;;;;;;;;;;;;;3.87;93.12;100729.80;1590700;88;20178;-80
2021/11/17 04:32:02;;;;;;;;;;;;;;;3.94;93.01;100725.84;1564578;90;20325;-81
2021/11/17 04:34:31;;;;;;;;;;;;;;;3.97;92.81;100718.77;1622132;87;20818;-78
2021/11/17 04:37:10;;;;;;;;;;;;;;;3.90;93.05;100721.77;1624988;86;20448;-80
2021/11/17 04:39:54;;;;;;;;;;;;;;;3.98;92.81;100712.58;1624151;87;21928;-80
2021/11/17 04:42:52;;;;;;;;;;;;;;;4.02;92.88;100713.59;1625564;86;20179;-80
2021/11/17 04:45:27;;;;;;;;;;;;;;;4.00;92.96;100714.64;1624119;88;20530;-81
2021/11/17 04:48:02;;;;;;;;;;;;;;;4.00;92.64;100711.55;1624114;87;20205;-82
2021/11/17 04:50:43;;;;;;;;;;;;;;;4.06;92.44;100705.92;1627413;86;20220;-82
2021/11/17 04:53:16;;;;;;;;;;;;;;;4.06;92.04;100704.62;1623931;86;21337;-82
2021/11/17 04:55:51;;;;;;;;;;;;;;;4.12;91.91;100707.31;1625970;86;20694;-81
2021/11/17 04:58:20;;;;;;;;;;;;;;;4.08;92.16;100705.83;1626091;86;20138;-82
2021/11/17 05:01:11;;;;;;;;;;;;;;;4.09;92.36;100695.75;1622115;86;20171;-82
2021/11/17 05:03:49;;;;;;;;;;;;;;;4.03;92.22;100697.45;1624070;86;20217;-81
2021/11/17 05:06:36;;;;;;;;;;;;;;;3.88;92.09;100697.50;1626418;86;21206;-81
2021/11/17 05:09:31;;;;;;;;;;;;;;;3.91;92.61;100699.91;1625971;86;20475;-81
2021/11/17 05:12:15;;;;;;;;;;;;;;;3.95;92.44;100704.01;1626521;86;20186;-81
2021/11/17 05:14:53;;;;;;;;;;;;;;;3.97;92.57;100696.55;1623369;87;20202;-80
2021/11/17 05:17:28;;;;;;;;;;;;;;;4.01;92.47;100692.78;1623368;86;20212;-82
2021/11/17 05:19:57;;;;;;;;;;;;;;;4.12;92.45;100694.24;1623300;86;21190;-81
2021/11/17 05:22:33;;;;;;;;;;;;;;;4.07;91.77;100694.55;1622921;86;20319;-82
2021/11/17 05:25:11;;;;;;;;;;;;;;;4.13;91.68;100693.28;1627912;85;20499;-82
2021/11/17 05:27:49;;;;;;;;;;;;;;;4.21;91.64;100691.02;1633424;85;21135;-82
2021/11/17 05:30:25;;;;;;;;;;;;;;;4.23;91.17;100690.44;1634192;86;20219;-82
2021/11/17 05:32:57;;;;;;;;;;;;;;;4.28;90.96;100692.27;1631812;86;21165;-82
2021/11/17 05:35:40;;;;;;;;;;;;;;;4.30;90.73;100693.02;1631638;86;20217;-81
2021/11/17 05:38:15;;;;;;;;;;;;;;;4.34;90.36;100684.98;1631126;86;20152;-81
2021/11/17 05:40:45;;;;;;;;;;;;;;;4.30;89.65;100689.10;1636684;86;20182;-80
2021/11/17 05:43:46;;;;;;;;;;;;;;;4.29;89.64;100688.72;1633029;86;20137;-81
2021/11/17 05:46:27;;;;;;;;;;;;;;;4.30;89.55;100690.86;1634980;86;22100;-82
2021/11/17 05:49:11;;;;;;;;;;;;;;;4.27;89.36;100677.55;1633917;86;20120;-81
2021/11/17 05:52:02;;;;;;;;;;;;;;;4.26;89.36;100681.56;1632265;86;20147;-81
2021/11/17 05:54:52;;;;;;;;;;;;;;;4.20;89.49;100683.28;1620556;86;20257;-80
2021/11/17 05:57:24;;;;;;;;;;;;;;;4.22;89.54;100683.52;1630649;86;20190;-80
2021/11/17 06:00:15;;;;;;;;;;;;;;;4.21;89.55;100683.17;1633115;86;21058;-81
2021/11/17 06:02:44;;;;;;;;;;;;;;;4.16;89.53;100685.23;1632847;86;20182;-80
2021/11/17 06:05:09;;;;;;;;;;;;;;;4.15;89.48;100696.66;1634573;86;20119;-81
2021/11/17 06:07:35;;;;;;;;;;;;;;;4.12;89.40;100696.86;1637620;86;20169;-80
2021/11/17 06:10:12;;;;;;;;;;;;;;;4.08;89.44;100695.38;1634382;86;20197;-79
2021/11/17 06:12:38;;;;;;;;;;;;;;;4.11;89.33;100687.33;1636134;86;21954;-82
2021/11/17 06:15:05;;;;;;;;;;;;;;;4.15;89.36;100691.42;1638130;86;20196;-81
2021/11/17 06:17:31;;;;;;;;;;;;;;;4.11;89.41;100689.94;1636453;86;20168;-80
2021/11/17 06:19:57;;;;;;;;;;;;;;;4.12;89.66;100701.60;1634248;86;20149;-80
2021/11/17 06:22:24;;;;;;;;;;;;;;;4.16;89.66;100695.70;1635661;87;20196;-79
2021/11/17 06:24:50;;;;;;;;;;;;;;;4.10;89.46;100707.41;1632767;86;22001;-80
2021/11/17 06:27:18;;;;;;;;;;;;;;;4.15;89.77;100704.50;1633269;86;20198;-81
2021/11/17 06:29:47;;;;;;;;;;;;;;;4.14;89.69;100699.72;1642320;86;20664;-81
2021/11/17 06:32:12;;;;;;;;;;;;;;;4.19;89.47;100705.95;1646052;85;20158;-82
2021/11/17 06:34:44;;;;;;;;;;;;;;;4.14;89.29;100702.81;1639078;85;20159;-82
2021/11/17 06:37:11;;;;;;;;;;;;;;;4.16;89.10;100695.70;1645309;86;21259;-80
2021/11/17 06:39:39;;;;;;;;;;;;;;;4.15;88.75;100696.66;1639032;86;20790;-83
2021/11/17 06:42:07;;;;;;;;;;;;;;;4.11;88.75;100697.78;1644192;86;20199;-83
2021/11/17 06:44:32;;;;;;;;;;;;;;;4.20;88.83;100690.64;1642407;86;20204;-84
2021/11/17 06:46:58;;;;;;;;;;;;;;;4.23;89.04;100689.13;1645208;86;21487;-80
2021/11/17 06:49:23;;;;;;;;;;;;;;;4.21;88.99;100693.63;1640151;86;21125;-79
2021/11/17 06:51:49;;;;;;;;;;;;;;;4.21;88.86;100694.94;1644453;86;20209;-79
2021/11/17 06:54:15;;;;;;;;;;;;;;;4.27;88.82;100697.15;1636896;86;20305;-80
2021/11/17 06:56:40;;;;;;;;;;;;;;;4.28;88.71;100696.19;1645230;86;21429;-80
2021/11/17 06:59:06;;;;;;;;;;;;;;;4.28;88.70;100687.04;1643486;85;20200;-80
2021/11/17 07:01:31;;;;;;;;;;;;;;;4.35;88.59;100687.48;1642787;86;21095;-80
2021/11/17 07:03:58;;;;;;;;;;;;;;;4.34;88.73;100687.59;1643728;86;20770;-79
2021/11/17 07:06:24;;;;;;;;;;;;;;;4.35;89.09;100690.55;1641137;86;20114;-81
2021/11/17 07:08:50;;;;;;;;;;;;;;;4.33;89.38;100692.44;1637181;86;21112;-81
2021/11/17 07:11:15;;;;;;;;;;;;;;;4.36;89.23;100690.93;1641143;86;20249;-80
2021/11/17 07:13:41;;;;;;;;;;;;;;;4.33;89.88;100689.83;1632285;85;21084;-80
2021/11/17 07:16:07;;;;;;;;;;;;;;;4.44;89.72;100689.48;1638295;86;20146;-81
2021/11/17 07:18:34;;;;;;;;;;;;;;;4.51;89.52;100687.28;1640442;84;20232;-79
2021/11/17 07:21:00;;;;;;;;;;;;;;;4.44;89.64;100693.86;1641612;86;20558;-82
2021/11/17 07:23:26;;;;;;;;;;;;;;;4.46;89.79;100686.77;1639890;86;20197;-79
2021/11/17 07:25:51;;;;;;;;;;;;;;;4.56;89.71;100685.67;1641262;86;21977;-80
2021/11/17 07:28:17;;;;;;;;;;;;;;;4.62;89.32;100687.39;1655152;85;20196;-80
2021/11/17 07:30:42;;;;;;;;;;;;;;;4.70;89.23;100696.50;1649818;85;20526;-79
2021/11/17 07:33:08;;;;;;;;;;;;;;;4.79;88.98;100698.01;1650022;86;20194;-79
2021/11/17 07:35:36;;;;;;;;;;;;;;;4.84;88.82;100691.16;1652256;86;20158;-79
2021/11/17 07:38:03;;;;;;;;;;;;;;;4.75;88.72;100695.70;1652142;86;21109;-79
2021/11/17 07:40:31;;;;;;;;;;;;;;;4.79;88.84;100702.41;1656941;85;20134;-79
2021/11/17 07:42:57;;;;;;;;;;;;;;;4.89;88.75;100694.28;1649484;85;20186;-79
2021/11/17 07:45:23;;;;;;;;;;;;;;;4.96;88.58;100692.09;1647066;86;20205;-79
2021/11/17 07:47:49;;;;;;;;;;;;;;;5.02;88.46;100685.95;1651393;85;20197;-78
2021/11/17 07:50:15;;;;;;;;;;;;;;;5.03;88.31;100697.25;1651345;85;21382;-78
2021/11/17 07:52:40;;;;;;;;;;;;;;;5.03;88.18;100698.11;1649759;85;20214;-78
2021/11/17 07:55:08;;;;;;;;;;;;;;;5.12;88.07;100697.09;1656589;85;20193;-78
2021/11/17 07:57:33;;;;;;;;;;;;;;;5.09;88.02;100696.00;1631376;86;20566;-79
2021/11/17 07:59:59;;;;;;;;;;;;;;;5.16;87.99;100693.33;1653548;85;20172;-78
2021/11/17 08:02:24;;;;;;;;;;;;;;;5.21;87.99;100696.45;1650466;86;21118;-78
2021/11/17 08:04:50;;;;;;;;;;;;;;;5.23;87.60;100695.86;1652186;86;20193;-79
2021/11/17 08:07:19;;;;;;;;;;;;;;;5.23;87.20;100701.09;1649050;86;20129;-78
2021/11/17 08:09:43;;;;;;;;;;;;;;;5.22;87.20;100699.44;1649425;86;20228;-79
2021/11/17 08:12:09;;;;;;;;;;;;;;;5.27;87.20;100697.33;1633093;85;20113;-78
2021/11/17 08:14:35;;;;;;;;;;;;;;;5.24;87.25;100698.84;1658083;85;22079;-80
2021/11/17 08:17:01;;;;;;;;;;;;;;;5.34;87.07;100701.16;1654805;85;20172;-78
2021/11/17 08:19:27;;;;;;;;;;;;;;;5.36;87.24;100701.91;1652390;86;20262;-79
2021/11/17 08:21:52;;;;;;;;;;;;;;;5.37;87.23;100703.56;1656974;85;20774;-79
2021/11/17 08:24:18;;;;;;;;;;;;;;;5.41;87.29;100706.83;1654593;86;20144;-78
2021/11/17 08:26:43;;;;;;;;;;;;;;;5.49;87.04;100702.35;1654171;85;21107;-79
2021/11/17 08:29:10;;;;;;;;;;;;;;;5.46;86.55;100709.11;1650472;86;20215;-78
2021/11/17 08:31:37;;;;;;;;;;;;;;;5.39;86.76;100709.55;1615784;87;20194;-78
2021/11/17 08:34:02;;;;;;;;;;;;;;;5.32;86.62;100710.92;1617934;86;20205;-80
2021/11/17 08:36:28;;;;;;;;;;;;;;;5.38;86.83;100710.97;1618482;88;20760;-80
2021/11/17 08:38:54;;;;;;;;;;;;;;;5.38;87.03;100709.17;1619625;87;21186;-80
2021/11/17 08:41:21;;;;;;;;;;;;;;;5.38;87.03;100711.80;1617174;87;20614;-80
2021/11/17 08:43:47;;;;;;;;;;;;;;;5.43;87.59;100717.19;1605181;88;20455;-79
2021/11/17 08:46:12;;;;;;;;;;;;;;;5.49;87.36;100718.06;1604077;88;20154;-78
2021/11/17 08:48:38;;;;;;;;;;;;;;;5.59;87.12;100717.75;1607663;87;20180;-78
2021/11/17 08:51:06;;;;;;;;;;;;;;;5.64;86.69;100715.66;1606778;88;21222;-79
2021/11/17 08:53:33;;;;;;;;;;;;;;;5.59;86.50;100717.75;1606602;89;20206;-79
2021/11/17 08:56:00;;;;;;;;;;;;;;;5.61;86.45;100714.57;1601918;89;20155;-77
2021/11/17 08:58:25;;;;;;;;;;;;;;;5.49;86.36;100716.76;1603397;88;20269;-77
2021/11/17 09:00:51;;;;;;;;;;;;;;;5.52;86.46;100716.54;1604586;89;20181;-78
2021/11/17 09:03:17;;;;;;;;;;;;;;;5.51;86.40;100714.86;1604588;89;21915;-79
2021/11/17 09:05:51;;;;;;;;;;;;;;;5.51;86.10;100712.23;1605336;88;20120;-77
2021/11/17 09:08:16;;;;;;;;;;;;;;;5.35;86.04;100701.53;1605952;88;20277;-78
2021/11/17 09:10:45;;;;;;;;;;;;;;;5.43;86.65;100708.02;1600877;89;20140;-78
2021/11/17 09:13:11;;;;;;;;;;;;;;;5.38;86.54;100714.41;1601269;88;20181;-77
2021/11/17 09:15:38;;;;;;;;;;;;;;;5.16;87.27;100714.27;1607393;87;21163;-78
2021/11/17 09:18:05;;;;;;;;;;;;;;;5.20;87.89;100710.47;1603073;88;20328;-77
2021/11/17 09:20:31;;;;;;;;;;;;;;;5.15;88.25;100725.67;1606753;89;20215;-78
2021/11/17 09:22:56;;;;;;;;;;;;;;;5.20;88.50;100715.70;1602175;89;20710;-78
2021/11/17 09:25:23;;;;;;;;;;;;;;;5.22;87.73;100713.84;1598773;88;20186;-78
2021/11/17 09:27:48;;;;;;;;;;;;;;;5.24;87.94;100714.56;1592702;89;20545;-76
2021/11/17 09:30:18;;;;;;;;;;;;;;;5.29;87.87;100688.88;1621316;87;20165;-77
2021/11/17 09:32:44;;;;;;;;;;;;;;;5.42;87.89;100703.72;1609488;88;20203;-77
2021/11/17 09:35:12;;;;;;;;;;;;;;;5.42;87.62;100701.10;1623728;86;20211;-78
2021/11/17 09:37:38;;;;;;;;;;;;;;;5.33;87.40;100690.34;1645667;86;20179;-78
2021/11/17 09:40:05;;;;;;;;;;;;;;;5.44;87.47;100693.96;1645829;86;21101;-77
2021/11/17 09:42:30;;;;;;;;;;;;;;;5.45;87.33;100687.79;1637342;86;20573;-78
2021/11/17 09:44:56;;;;;;;;;;;;;;;5.38;86.96;100676.44;1637061;86;20202;-78
2021/11/17 09:47:23;;;;;;;;;;;;;;;5.47;87.00;100678.88;1630710;86;20787;-77
2021/11/17 09:50:15;;;;;;;;;;;;;;;5.55;86.89;100671.30;1638379;86;20236;-78
2021/11/17 09:52:47;;;;;;;;;;;;;;;5.60;86.95;100674.08;1637498;85;21156;-79
2021/11/17 09:55:22;;;;;;;;;;;;;;;5.77;86.95;100675.47;1635890;86;20206;-78
2021/11/17 09:57:51;;;;;;;;;;;;;;;5.65;86.91;100673.25;1638903;86;20153;-78
2021/11/17 10:00:26;;;;;;;;;;;;;;;5.69;87.19;100662.44;1643964;86;20693;-77
2021/11/17 10:02:59;;;;;;;;;;;;;;;5.73;87.15;100660.42;1639122;86;20184;-78
2021/11/17 10:08:38;;;;;;;;;;;;;;;5.86;87.51;100649.89;1635009;86;20116;-80
2021/11/17 10:14:02;;;;;;;;;;;;;;;5.83;87.42;100655.37;1816492;77;20157;-80
2021/11/17 10:16:29;;;;;;;;;;;;;;;6.04;87.23;100644.60;1822764;77;22006;-81
2021/11/17 10:19:21;;;;;;;;;;;;;;;5.81;87.23;100653.31;1818286;77;20820;-79
2021/11/17 10:21:46;;;;;;;;;;;;;;;5.93;87.12;100649.78;1822916;77;20120;-78
2021/11/17 10:24:17;;;;;;;;;;;;;;;5.82;87.70;100654.51;1783857;77;20199;-79
2021/11/17 10:26:54;;;;;;;;;;;;;;;5.95;87.62;100653.15;1819333;77;20194;-79
2021/11/17 10:29:26;;;;;;;;;;;;;;;5.87;88.08;100645.85;1824145;77;21147;-79
2021/11/17 10:31:58;;;;;;;;;;;;;;;5.96;87.96;100637.77;1815458;77;20127;-79
2021/11/17 10:34:33;;;;;;;;;;;;;;;6.05;87.71;100640.22;1830430;77;20109;-79
2021/11/17 10:37:03;;;;;;;;;;;;;;;6.08;87.70;100638.19;1824698;77;20161;-80
2021/11/17 10:39:32;;;;;;;;;;;;;;;6.05;87.86;100640.22;1818642;77;20469;-79
2021/11/17 10:42:13;;;;;;;;;;;;;;;6.18;87.77;100638.81;1823029;77;21243;-79
2021/11/17 10:44:48;;;;;;;;;;;;;;;6.22;87.38;100636.33;1823056;77;20116;-78
2021/11/17 10:47:23;;;;;;;;;;;;;;;6.24;86.82;100640.97;1824815;77;20233;-79
2021/11/17 10:49:58;;;;;;;;;;;;;;;6.24;86.52;100638.34;1819642;77;20172;-79
2021/11/17 10:52:27;;;;;;;;;;;;;;;6.28;86.69;100634.55;1818619;77;20184;-80
2021/11/17 10:54:54;;;;;;;;;;;;;;;6.17;87.18;100637.13;1811980;77;21174;-79
2021/11/17 10:57:21;;;;;;;;;;;;;;;6.07;87.57;100640.44;1815152;77;20127;-79
2021/11/17 10:59:48;;;;;;;;;;;;;;;6.10;87.65;100629.72;1797220;77;20163;-79
2021/11/17 11:02:14;;;;;;;;;;;;;;;6.16;87.78;100635.48;1825214;77;20141;-78
2021/11/17 11:04:43;;;;;;;;;;;;;;;6.24;87.79;100633.10;1824555;77;20166;-83
2021/11/17 11:07:18;;;;;;;;;;;;;;;6.24;87.87;100630.48;1816279;77;21143;-79
2021/11/17 11:09:47;;;;;;;;;;;;;;;6.18;87.81;100630.95;1823706;77;21002;-79
2021/11/17 11:12:16;;;;;;;;;;;;;;;6.22;88.10;100632.39;1804499;77;20143;-78
2021/11/17 11:14:48;;;;;;;;;;;;;;;6.30;87.95;100628.70;1829501;77;20611;-78
2021/11/17 11:17:36;;;;;;;;;;;;;;;6.45;88.00;100635.41;1830504;77;20167;-77
2021/11/17 11:20:23;;;;;;;;;;;;;;;6.55;87.05;100626.83;1825582;77;21086;-76
2021/11/17 11:23:11;;;;;;;;;;;;;;;6.65;86.41;100622.55;1831156;77;20109;-78
2021/11/17 11:26:00;;;;;;;;;;;;;;;6.76;86.28;100610.73;1830274;77;20094;-79
2021/11/17 11:28:32;;;;;;;;;;;;;;;6.86;85.99;100613.95;1831259;77;20109;-79
2021/11/17 11:31:10;;;;;;;;;;;;;;;6.85;85.94;100614.41;1833888;77;20168;-78
2021/11/17 11:33:48;;;;;;;;;;;;;;;6.93;86.03;100613.80;1828130;77;21948;-79
2021/11/17 11:36:14;;;;;;;;;;;;;;;6.97;85.55;100612.62;1823305;77;20158;-79
2021/11/17 11:39:01;;;;;;;;;;;;;;;6.95;85.42;100610.11;1823833;77;20125;-79
2021/11/17 11:41:48;;;;;;;;;;;;;;;7.08;85.45;100609.97;1830347;77;20527;-79
2021/11/17 11:44:23;;;;;;;;;;;;;;;7.14;85.21;100602.09;1825284;77;20339;-79
2021/11/17 11:47:01;;;;;;;;;;;;;;;7.23;85.23;100592.64;1820445;77;20135;-79
2021/11/17 11:49:48;;;;;;;;;;;;;;;7.35;84.85;100600.84;1825990;77;20177;-79
2021/11/17 11:52:32;;;;;;;;;;;;;;;7.41;84.95;100595.09;1831099;77;20081;-80
2021/11/17 11:55:06;;;;;;;;;;;;;;;7.56;84.75;100593.00;1832727;77;20163;-79
2021/11/17 11:57:45;;;;;;;;;;;;;;;7.61;84.50;100587.36;1828729;77;20219;-80
2021/11/17 12:00:17;;;;;;;;;;;;;;;7.68;84.08;100595.11;1806802;77;21189;-78
2021/11/17 12:02:52;;;;;;;;;;;;;;;7.72;83.95;100589.93;1830971;77;20147;-77
2021/11/17 12:05:40;;;;;;;;;;;;;;;7.83;84.03;100586.41;1828617;77;20438;-78
2021/11/17 12:08:12;;;;;;;;;;;;;;;7.89;83.46;100588.08;1834427;77;20121;-77
2021/11/17 12:10:43;;;;;;;;;;;;;;;7.81;83.44;100583.09;1798084;77;20149;-77
2021/11/17 12:13:12;;;;;;;;;;;;;;;7.92;83.81;100580.39;1777871;80;21112;-78
2021/11/17 12:15:39;;;;;;;;;;;;;;;7.82;83.29;100571.12;1770243;80;20462;-78
2021/11/17 12:18:14;;;;;;;;;;;;;;;7.94;83.52;100575.00;1774134;79;21201;-78
2021/11/17 12:20:44;;;;;;;;;;;;;;;8.01;83.50;100569.59;1780349;80;20219;-78
2021/11/17 12:23:16;;;;;;;;;;;;;;;7.99;83.00;100563.14;1779613;79;20168;-78
2021/11/17 12:25:45;;;;;;;;;;;;;;;8.08;83.32;100570.75;1777074;79;21056;-78
2021/11/17 12:28:13;;;;;;;;;;;;;;;8.11;82.97;100566.55;1771811;80;20521;-78
2021/11/17 12:31:01;;;;;;;;;;;;;;;8.12;83.23;100556.36;1775889;80;20166;-77
2021/11/17 12:33:39;;;;;;;;;;;;;;;8.18;83.27;100558.47;1754680;80;20227;-76
2021/11/17 12:36:17;;;;;;;;;;;;;;;8.24;83.08;100553.17;1778591;79;20509;-76
2021/11/17 12:38:44;;;;;;;;;;;;;;;8.36;82.92;100548.64;1776838;80;21367;-78
2021/11/17 12:41:23;;;;;;;;;;;;;;;8.27;82.88;100547.16;1773219;79;20217;-78
2021/11/17 12:44:00;;;;;;;;;;;;;;;8.43;82.88;100540.12;1776842;80;20163;-76
2021/11/17 12:46:35;;;;;;;;;;;;;;;8.42;81.92;100541.53;1773766;80;20139;-78
2021/11/17 12:49:13;;;;;;;;;;;;;;;8.55;81.95;100538.23;1776815;80;20274;-76
2021/11/17 12:51:54;;;;;;;;;;;;;;;8.66;81.68;100539.11;1774084;79;21560;-76
2021/11/17 12:54:24;;;;;;;;;;;;;;;8.87;81.44;100524.06;1772294;80;20188;-77
2021/11/17 12:56:56;;;;;;;;;;;;;;;8.98;80.96;100533.64;1774648;79;20207;-77
2021/11/17 12:59:40;;;;;;;;;;;;;;;9.03;80.83;100541.96;1776557;80;20203;-76
2021/11/17 13:02:25;;;;;;;;;;;;;;;9.04;80.03;100534.88;1770122;80;20198;-75
2021/11/17 13:05:11;;;;;;;;;;;;;;;9.04;79.82;100530.92;1769273;80;21360;-75
2021/11/17 13:07:47;;;;;;;;;;;;;;;9.18;79.64;100533.16;1775497;79;20364;-75
2021/11/17 13:10:28;;;;;;;;;;;;;;;9.19;79.16;100528.24;1791494;77;20138;-76
2021/11/17 13:13:03;;;;;;;;;;;;;;;9.24;79.06;100522.06;1812478;77;20194;-76
2021/11/17 13:15:42;;;;;;;;;;;;;;;9.28;78.83;100526.09;1828147;77;20160;-75
2021/11/17 13:18:08;;;;;;;;;;;;;;;9.15;78.32;100529.47;1827292;77;21172;-75
2021/11/17 13:20:41;;;;;;;;;;;;;;;9.14;78.69;100525.20;1823118;77;20119;-75
2021/11/17 13:23:13;;;;;;;;;;;;;;;9.19;78.97;100522.97;1826934;77;20121;-76
2021/11/17 13:26:00;;;;;;;;;;;;;;;9.21;78.85;100521.52;1824922;77;20478;-76
2021/11/17 13:28:48;;;;;;;;;;;;;;;9.27;78.46;100520.47;1820384;77;20145;-75
2021/11/17 13:31:32;;;;;;;;;;;;;;;9.24;78.22;100521.23;1827029;77;21157;-77
2021/11/17 13:34:09;;;;;;;;;;;;;;;9.18;78.43;100518.66;1822645;77;20119;-76
2021/11/17 13:36:39;;;;;;;;;;;;;;;8.89;78.42;100518.66;1819246;77;20181;-76
2021/11/17 13:39:04;;;;;;;;;;;;;;;8.72;79.07;100521.46;1819946;77;20103;-76
2021/11/17 13:41:32;;;;;;;;;;;;;;;8.74;79.42;100520.34;1821364;77;20240;-75
2021/11/17 13:44:00;;;;;;;;;;;;;;;8.73;79.45;100512.11;1819203;77;21706;-76
2021/11/17 13:46:25;;;;;;;;;;;;;;;8.77;79.38;100508.71;1824682;77;20437;-76
2021/11/17 13:48:51;;;;;;;;;;;;;;;8.71;79.29;100513.20;1819182;77;20155;-76
2021/11/17 13:51:19;;;;;;;;;;;;;;;8.75;79.44;100504.90;1819788;77;20149;-76
2021/11/17 13:53:45;;;;;;;;;;;;;;;8.64;79.60;100512.92;1817417;77;20185;-76
2021/11/17 13:56:13;;;;;;;;;;;;;;;8.48;79.63;100511.27;1819382;77;21834;-76
2021/11/17 13:58:39;;;;;;;;;;;;;;;8.51;79.75;100507.87;1825509;77;20135;-76
2021/11/17 14:01:05;;;;;;;;;;;;;;;8.58;79.54;100513.45;1833498;77;20223;-76
2021/11/17 14:03:32;;;;;;;;;;;;;;;8.86;78.86;100515.80;1819936;77;20172;-76
2021/11/17 14:06:02;;;;;;;;;;;;;;;9.22;77.59;100516.60;1828806;77;20215;-77
2021/11/17 14:08:26;;;;;;;;;;;;;;;9.22;76.49;100514.79;1826585;77;20088;-77
2021/11/17 14:10:51;;;;;;;;;;;;;;;9.06;77.19;100515.81;1816747;77;20241;-77
2021/11/17 14:13:17;;;;;;;;;;;;;;;9.06;77.11;100517.12;1802648;77;20174;-77
2021/11/17 14:15:43;;;;;;;;;;;;;;;9.17;77.11;100517.02;1805534;77;20166;-77
2021/11/17 14:18:10;;;;;;;;;;;;;;;9.05;77.13;100524.20;1757415;80;20439;-77
2021/11/17 14:20:35;;;;;;;;;;;;;;;9.03;77.30;100525.33;1738590;81;21199;-77
2021/11/17 14:23:01;;;;;;;;;;;;;;;8.93;77.79;100520.88;1737932;81;20183;-78
2021/11/17 14:25:28;;;;;;;;;;;;;;;8.72;78.07;100513.56;1736793;81;20465;-77
2021/11/17 14:27:57;;;;;;;;;;;;;;;8.46;79.00;100511.40;1737769;81;20278;-78
2021/11/17 14:30:27;;;;;;;;;;;;;;;8.22;79.84;100514.34;1740959;81;20180;-77
2021/11/17 14:32:53;;;;;;;;;;;;;;;8.17;80.12;100510.78;1732171;81;22007;-77
2021/11/17 14:35:19;;;;;;;;;;;;;;;8.04;80.64;100519.36;1741173;81;20275;-77
2021/11/17 14:37:45;;;;;;;;;;;;;;;7.96;81.00;100511.30;1738476;81;20169;-79
2021/11/17 14:40:13;;;;;;;;;;;;;;;7.97;81.17;100507.69;1744958;81;20205;-79
2021/11/17 14:42:38;;;;;;;;;;;;;;;7.85;81.33;100509.09;1746173;81;20209;-78
2021/11/17 14:45:06;;;;;;;;;;;;;;;7.75;81.57;100516.07;1735266;80;20566;-78
2021/11/17 14:47:32;;;;;;;;;;;;;;;7.67;82.00;100513.26;1740463;81;20494;-79
2021/11/17 14:49:57;;;;;;;;;;;;;;;7.64;82.38;100510.88;1739470;80;20118;-78
2021/11/17 14:52:23;;;;;;;;;;;;;;;7.58;82.61;100512.22;1740156;81;20637;-79
2021/11/17 14:54:49;;;;;;;;;;;;;;;7.56;82.68;100520.72;1731116;81;20157;-78
2021/11/17 14:57:15;;;;;;;;;;;;;;;7.49;82.97;100518.27;1744886;81;21151;-78
2021/11/17 14:59:40;;;;;;;;;;;;;;;7.43;83.29;100516.97;1739294;81;20167;-79
2021/11/17 15:02:06;;;;;;;;;;;;;;;7.36;83.55;100516.66;1734893;81;20336;-79
2021/11/17 15:04:35;;;;;;;;;;;;;;;7.20;84.28;100514.92;1737683;81;20171;-79
2021/11/17 15:06:59;;;;;;;;;;;;;;;7.14;85.06;100509.67;1735332;81;20505;-79
2021/11/17 15:09:25;;;;;;;;;;;;;;;7.10;85.20;100505.65;1732541;81;21009;-79
2021/11/17 15:12:00;;;;;;;;;;;;;;;7.10;85.21;100503.02;1726416;81;20202;-80
2021/11/17 15:14:28;;;;;;;;;;;;;;;7.01;85.92;100501.14;1756230;79;20133;-81
2021/11/17 15:16:57;;;;;;;;;;;;;;;6.99;85.96;100506.52;1761022;80;20201;-79
2021/11/17 15:19:22;;;;;;;;;;;;;;;6.95;86.22;100502.46;1763119;80;20172;-81
2021/11/17 15:21:50;;;;;;;;;;;;;;;6.81;86.34;100503.57;1752831;79;21100;-78
2021/11/17 15:24:16;;;;;;;;;;;;;;;6.76;86.87;100507.55;1760957;80;20621;-79
2021/11/17 15:26:47;;;;;;;;;;;;;;;6.82;86.65;100505.70;1768775;80;20139;-80
2021/11/17 15:29:12;;;;;;;;;;;;;;;6.75;86.72;100502.75;1765675;80;20446;-81
2021/11/17 15:31:38;;;;;;;;;;;;;;;6.71;86.82;100501.34;1765243;80;20133;-80
2021/11/17 15:34:05;;;;;;;;;;;;;;;6.62;87.34;100508.64;1755763;80;21138;-81
2021/11/17 15:36:30;;;;;;;;;;;;;;;6.63;87.40;100511.59;1763615;80;20123;-82
2021/11/17 15:38:56;;;;;;;;;;;;;;;6.54;87.98;100512.33;1758614;80;20244;-80
2021/11/17 15:41:23;;;;;;;;;;;;;;;6.46;88.45;100507.22;1753405;80;20112;-81
2021/11/17 15:43:50;;;;;;;;;;;;;;;6.50;88.21;100509.12;1766800;80;20121;-80
2021/11/17 15:46:16;;;;;;;;;;;;;;;6.49;88.50;100506.61;1764682;80;21031;-79